createdAt,value
2019-05-13T00:00:45.158Z,78.57
2019-05-13T00:03:16.697Z,109.97
2019-05-13T00:05:48.191Z,67.87
2019-05-13T00:10:53.995Z,38.50
2019-05-13T00:13:25.048Z,30.55
2019-05-13T00:18:26.931Z,28.80
2019-05-13T00:20:58.264Z,25.45
2019-05-13T00:23:29.636Z,27.07
2019-05-13T00:26:00.989Z,30.17
2019-05-13T00:28:34.298Z,74.80
2019-05-13T00:31:05.362Z,38.38
2019-05-13T00:33:36.836Z,40.38
2019-05-13T00:36:08.241Z,33.67
2019-05-13T00:38:39.690Z,36.55
2019-05-13T00:41:10.994Z,59.38
2019-05-13T00:43:44.424Z,74.55
2019-05-13T00:46:15.484Z,63.02
2019-05-13T00:48:46.988Z,46.00
2019-05-13T00:51:18.358Z,39.70
2019-05-13T00:53:49.693Z,35.68
2019-05-13T00:56:21.019Z,38.25
2019-05-13T00:58:54.138Z,47.98
2019-05-13T01:01:25.619Z,49.25
2019-05-13T01:03:57.030Z,44.25
2019-05-13T01:06:28.398Z,40.58
2019-05-13T01:08:59.801Z,46.40
2019-05-13T01:11:31.153Z,42.17
2019-05-13T01:14:04.243Z,39.40
2019-05-13T01:16:35.620Z,41.60
2019-05-13T01:19:07.033Z,42.43
2019-05-13T01:21:38.397Z,38.15
2019-05-13T01:24:09.741Z,41.77
2019-05-13T01:26:41.079Z,40.45
2019-05-13T01:29:13.504Z,43.65
2019-05-13T01:31:45.158Z,39.85
2019-05-13T01:34:16.514Z,35.50
2019-05-13T01:36:47.893Z,35.52
2019-05-13T01:39:19.358Z,32.98
2019-05-13T01:41:50.736Z,31.52
2019-05-13T01:44:24.219Z,30.15
2019-05-13T01:46:55.284Z,28.23
2019-05-13T01:49:26.701Z,27.77
2019-05-13T01:51:58.034Z,30.35
2019-05-13T01:54:29.450Z,34.40
2019-05-13T01:57:00.847Z,33.40
2019-05-13T01:59:34.667Z,29.25
2019-05-13T02:02:06.054Z,33.60
2019-05-13T02:04:37.491Z,36.17
2019-05-13T02:07:08.792Z,33.88
2019-05-13T02:09:40.318Z,30.08
2019-05-13T02:12:13.430Z,29.92
2019-05-13T02:14:45.189Z,37.48
2019-05-13T02:17:16.561Z,29.27
2019-05-13T02:19:47.970Z,33.75
2019-05-13T02:22:19.449Z,38.65
2019-05-13T02:24:50.875Z,28.17
2019-05-13T02:29:54.007Z,31.95
2019-05-13T02:32:25.633Z,33.40
2019-05-13T02:34:57.055Z,40.10
2019-05-13T02:37:29.559Z,31.95
2019-05-13T02:40:03.624Z,39.70
2019-05-13T02:42:34.559Z,31.05
2019-05-13T02:45:06.178Z,30.55
2019-05-13T02:47:37.612Z,29.63
2019-05-13T02:50:12.240Z,28.47
2019-05-13T02:52:44.399Z,28.38
2019-05-13T02:55:15.347Z,35.50
2019-05-13T02:57:46.742Z,29.98
2019-05-13T03:00:18.232Z,33.38
2019-05-13T03:07:53.329Z,30.92
2019-05-13T03:12:55.245Z,32.67
2019-05-13T03:18:05.767Z,27.85
2019-05-13T03:20:37.207Z,28.27
2019-05-13T03:23:08.577Z,30.55
2019-05-13T03:25:42.896Z,27.98
2019-05-13T03:28:13.584Z,29.63
2019-05-13T03:30:46.318Z,34.00
2019-05-13T03:33:20.073Z,29.57
2019-05-13T03:35:55.799Z,23.85
2019-05-13T03:38:25.443Z,25.88
2019-05-13T03:40:57.145Z,26.65
2019-05-13T03:45:58.902Z,32.45
2019-05-13T03:48:33.266Z,27.27
2019-05-13T03:51:03.431Z,29.82
2019-05-13T03:56:05.336Z,25.12
2019-05-13T03:58:36.645Z,24.37
2019-05-13T04:01:07.987Z,23.90
2019-05-13T04:03:39.348Z,29.60
2019-05-13T04:06:13.555Z,27.48
2019-05-13T04:08:44.203Z,21.42
2019-05-13T04:11:15.974Z,27.07
2019-05-13T04:16:19.025Z,22.17
2019-05-13T04:18:53.711Z,21.37
2019-05-13T04:21:23.693Z,19.90
2019-05-13T04:26:25.594Z,17.20
2019-05-13T04:31:27.658Z,16.62
2019-05-13T04:36:32.004Z,21.60
2019-05-13T04:39:05.282Z,16.00
2019-05-13T04:41:36.772Z,16.65
2019-05-13T04:44:08.093Z,16.60
2019-05-13T04:46:43.090Z,14.83
2019-05-13T04:49:12.760Z,15.25
2019-05-13T04:54:14.798Z,18.75
2019-05-13T04:56:46.472Z,14.87
2019-05-13T04:59:17.859Z,14.30
2019-05-13T05:02:37.429Z,14.07
2019-05-13T05:05:03.353Z,16.77
2019-05-13T05:08:03.120Z,17.55
2019-05-13T05:11:05.971Z,15.35
2019-05-13T05:13:43.035Z,16.20
2019-05-13T05:16:46.844Z,13.93
2019-05-13T05:19:44.980Z,14.78
2019-05-13T05:22:32.596Z,17.90
2019-05-13T05:25:12.884Z,16.15
2019-05-13T05:27:47.443Z,16.85
2019-05-13T05:30:38.454Z,17.00
2019-05-13T05:33:31.919Z,17.07
2019-05-13T05:36:21.934Z,14.73
2019-05-13T05:39:01.722Z,15.65
2019-05-13T05:41:34.547Z,14.87
2019-05-13T05:44:05.927Z,17.23
2019-05-13T05:46:42.790Z,15.65
2019-05-13T05:49:13.324Z,17.65
2019-05-13T05:51:44.677Z,15.32
2019-05-13T05:54:16.096Z,15.48
2019-05-13T05:56:47.468Z,17.10
2019-05-13T05:59:18.778Z,18.30
2019-05-13T06:01:52.537Z,18.02
2019-05-13T06:04:24.772Z,16.15
2019-05-13T06:06:56.056Z,17.37
2019-05-13T06:09:27.415Z,17.82
2019-05-13T06:11:58.798Z,19.62
2019-05-13T06:17:02.630Z,40.43
2019-05-13T06:19:33.646Z,32.80
2019-05-13T06:22:05.002Z,40.05
2019-05-13T06:24:37.435Z,42.85
2019-05-13T06:27:08.773Z,34.65
2019-05-13T06:29:42.297Z,40.78
2019-05-13T06:32:21.552Z,36.85
2019-05-13T06:34:46.434Z,43.73
2019-05-13T06:37:17.749Z,37.70
2019-05-13T06:39:51.224Z,32.45
2019-05-13T06:42:22.411Z,33.02
2019-05-13T06:47:24.198Z,38.92
2019-05-13T06:49:55.541Z,35.48
2019-05-13T06:52:26.989Z,33.58
2019-05-13T06:57:28.996Z,24.32
2019-05-13T07:02:32.697Z,30.70
2019-05-13T07:07:35.139Z,27.47
2019-05-13T07:12:37.762Z,35.43
2019-05-13T07:15:11.587Z,29.15
2019-05-13T07:17:43.318Z,30.15
2019-05-13T07:22:45.185Z,45.08
2019-05-13T07:27:47.180Z,40.10
2019-05-13T07:30:21.895Z,47.88
2019-05-13T07:32:53.305Z,57.83
2019-05-13T07:37:55.355Z,32.60
2019-05-13T07:42:57.328Z,33.08
2019-05-13T07:45:31.621Z,31.00
2019-05-13T07:48:02.847Z,34.18
2019-05-13T07:53:04.727Z,40.75
2019-05-13T07:55:36.151Z,27.35
2019-05-13T08:00:38.127Z,23.83
2019-05-13T08:03:12.038Z,26.50
2019-05-13T08:05:42.861Z,47.27
2019-05-13T08:10:45.196Z,26.82
2019-05-13T08:13:22.467Z,23.73
2019-05-13T08:15:55.071Z,21.52
2019-05-13T08:18:26.757Z,20.50
2019-05-13T08:23:28.786Z,25.02
2019-05-13T08:28:32.664Z,19.98
2019-05-13T08:31:04.564Z,26.48
2019-05-13T08:33:36.097Z,24.40
2019-05-13T08:36:07.701Z,22.65
2019-05-13T08:38:39.598Z,21.30
2019-05-13T08:41:18.826Z,22.07
2019-05-13T08:43:45.339Z,21.77
2019-05-13T08:48:47.344Z,20.68
2019-05-13T08:53:51.620Z,21.77
2019-05-13T09:54:37.533Z,14.03
2019-05-13T09:57:14.374Z,13.13
2019-05-13T10:02:16.169Z,12.45
2019-05-13T10:04:47.547Z,10.80
2019-05-13T10:09:51.810Z,14.45
2019-05-13T10:12:24.402Z,13.72
2019-05-13T10:14:55.657Z,16.70
2019-05-13T10:20:12.154Z,15.00
2019-05-13T10:22:43.556Z,14.68
2019-05-13T10:27:47.167Z,12.70
2019-05-13T10:30:18.550Z,13.62
2019-05-13T10:32:52.531Z,13.50
2019-05-13T10:35:23.192Z,13.08
2019-05-13T10:40:25.538Z,13.17
2019-05-13T10:42:56.918Z,15.48
2019-05-13T10:47:58.784Z,11.95
2019-05-13T10:52:59.483Z,12.23
2019-05-13T10:58:07.316Z,12.33
2019-05-13T11:00:51.722Z,13.25
2019-05-13T11:03:24.537Z,13.05
2019-05-13T11:08:26.442Z,14.78
2019-05-13T11:13:45.794Z,11.40
2019-05-13T11:16:02.341Z,10.85
2019-05-13T11:18:34.022Z,12.50
2019-05-13T11:23:36.118Z,10.40
2019-05-13T11:28:38.204Z,10.65
2019-05-13T11:33:42.226Z,10.70
2019-05-13T11:36:18.877Z,10.60
2019-05-13T11:38:46.407Z,13.15
2019-05-13T11:41:17.865Z,9.25
2019-05-13T11:44:09.201Z,14.87
2019-05-13T11:46:22.740Z,9.60
2019-05-13T11:48:54.179Z,10.08
2019-05-13T11:51:25.690Z,9.50
2019-05-13T11:56:33.975Z,8.93
2019-05-13T11:59:05.228Z,9.13
2019-05-13T12:01:36.769Z,12.88
2019-05-13T12:04:12.814Z,9.25
2019-05-13T12:06:49.035Z,9.08
2019-05-13T12:09:22.013Z,8.20
2019-05-13T12:11:54.281Z,11.25
2019-05-13T12:14:47.103Z,9.93
2019-05-13T12:17:05.384Z,12.68
2019-05-13T12:22:07.459Z,11.65
2019-05-13T12:24:42.213Z,9.93
2019-05-13T12:27:12.740Z,10.18
2019-05-13T12:29:44.504Z,9.60
2019-05-13T12:32:15.802Z,10.58
2019-05-13T12:34:47.186Z,10.90
2019-05-13T12:39:49.642Z,8.63
2019-05-13T12:42:22.832Z,10.15
2019-05-13T12:45:09.322Z,9.80
2019-05-13T12:47:33.530Z,11.00
2019-05-13T12:50:06.532Z,9.13
2019-05-13T12:52:39.369Z,10.28
2019-05-13T12:57:43.158Z,8.08
2019-05-13T13:02:50.411Z,8.80
2019-05-13T13:05:20.641Z,8.70
2019-05-13T13:08:13.474Z,7.62
2019-05-13T13:10:25.481Z,8.53
2019-05-13T13:15:48.644Z,11.00
2019-05-13T13:18:22.187Z,11.08
2019-05-13T13:21:00.310Z,10.23
2019-05-13T13:23:27.579Z,8.93
2019-05-13T13:28:35.195Z,10.18
2019-05-13T13:31:08.225Z,9.30
2019-05-13T13:33:39.620Z,13.65
2019-05-13T13:36:15.847Z,11.45
2019-05-13T13:38:45.598Z,11.08
2019-05-13T13:41:22.659Z,10.38
2019-05-13T13:43:53.764Z,10.75
2019-05-13T13:49:00.037Z,9.90
2019-05-13T13:51:34.484Z,11.35
2019-05-13T13:54:12.528Z,10.95
2019-05-13T13:56:47.035Z,9.85
2019-05-13T13:59:24.571Z,13.18
2019-05-13T14:01:58.041Z,10.68
2019-05-13T14:04:29.659Z,10.03
2019-05-13T14:06:55.936Z,9.85
2019-05-13T14:07:11.710Z,10.23
2019-05-13T14:07:28.052Z,10.05
2019-05-13T14:09:37.587Z,8.50
2019-05-13T14:12:11.209Z,12.18
2019-05-13T14:14:43.811Z,10.35
2019-05-13T14:17:17.823Z,10.35
2019-05-13T14:19:52.360Z,11.78
2019-05-13T14:22:26.842Z,11.30
2019-05-13T14:24:58.295Z,15.55
2019-05-13T14:27:31.487Z,14.10
2019-05-13T14:30:03.736Z,11.10
2019-05-13T14:32:35.277Z,14.28
2019-05-13T14:35:12.142Z,9.95
2019-05-13T14:37:43.015Z,9.30
2019-05-13T14:40:14.281Z,8.93
2019-05-13T14:42:45.579Z,10.85
2019-05-13T14:47:49.070Z,11.03
2019-05-13T14:52:52.677Z,11.48
2019-05-13T14:57:54.603Z,7.55
2019-05-13T15:02:56.512Z,7.53
2019-05-13T15:05:31.165Z,10.30
2019-05-13T15:08:02.141Z,11.55
2019-05-13T15:10:33.754Z,15.72
2019-05-13T15:13:05.407Z,11.15
2019-05-13T15:18:07.450Z,12.60
2019-05-13T15:20:38.937Z,16.20
2019-05-13T15:25:42.474Z,13.88
2019-05-13T15:30:44.438Z,13.98
2019-05-13T15:35:46.352Z,10.75
2019-05-13T15:38:17.837Z,9.08
2019-05-13T15:40:49.091Z,10.75
2019-05-13T15:45:52.619Z,10.93
2019-05-13T15:48:24.208Z,16.57
2019-05-13T15:53:26.169Z,13.58
2019-05-13T15:58:39.034Z,13.22
2019-05-13T16:01:02.887Z,19.65
2019-05-13T16:03:34.571Z,15.08
2019-05-13T16:06:06.120Z,15.70
2019-05-13T16:08:37.532Z,10.82
2019-05-13T16:13:39.375Z,12.58
2019-05-13T16:18:43.018Z,14.65
2019-05-13T16:23:45.031Z,12.25
2019-05-13T16:26:18.016Z,11.28
2019-05-13T16:31:20.037Z,13.50
2019-05-13T16:36:23.749Z,13.22
2019-05-13T16:38:55.256Z,18.00
2019-05-13T16:43:57.201Z,13.70
2019-05-13T16:46:28.554Z,9.08
2019-05-13T16:49:01.381Z,8.65
2019-05-13T16:51:32.806Z,9.23
2019-05-13T16:54:04.234Z,8.43
2019-05-13T16:59:06.750Z,9.63
2019-05-13T17:01:38.072Z,10.20
2019-05-13T17:04:09.444Z,10.08
2019-05-13T17:06:41.650Z,14.50
2019-05-13T17:09:13.462Z,21.48
2019-05-13T17:14:15.356Z,17.05
2019-05-13T17:19:17.327Z,11.25
2019-05-13T17:24:22.550Z,41.70
2019-05-13T17:26:55.457Z,62.55
2019-05-13T17:31:57.481Z,8.68
2019-05-13T17:34:28.805Z,6.65
2019-05-13T17:37:03.509Z,11.15
2019-05-13T17:39:34.972Z,7.70
2019-05-13T17:42:07.618Z,7.95
2019-05-13T17:44:45.888Z,7.45
2019-05-13T17:47:13.133Z,8.70
2019-05-13T17:52:17.202Z,8.35
2019-05-13T17:54:48.503Z,9.30
2019-05-13T17:57:21.683Z,10.63
2019-05-13T17:59:54.408Z,15.00
2019-05-13T18:05:01.826Z,14.55
2019-05-13T18:07:33.172Z,16.93
2019-05-13T18:10:11.915Z,9.53
2019-05-13T18:12:42.712Z,9.75
2019-05-13T18:15:15.804Z,12.73
2019-05-13T18:17:47.539Z,34.00
2019-05-13T18:20:21.769Z,19.55
2019-05-13T18:22:57.888Z,11.30
2019-05-13T18:25:31.741Z,11.68
2019-05-13T18:28:02.735Z,11.65
2019-05-13T18:33:11.773Z,13.32
2019-05-13T18:35:43.566Z,11.38
2019-05-13T18:38:15.214Z,13.38
2019-05-13T18:40:46.897Z,15.88
2019-05-13T18:43:21.542Z,17.50
2019-05-13T18:46:02.550Z,13.38
2019-05-13T18:48:38.253Z,12.45
2019-05-13T18:53:43.264Z,12.85
2019-05-13T18:59:13.434Z,10.70
2019-05-13T19:01:54.121Z,11.95
2019-05-13T19:04:28.029Z,12.03
2019-05-13T19:07:08.376Z,12.18
2019-05-13T19:09:41.717Z,11.80
2019-05-13T19:12:14.444Z,19.80
2019-05-13T19:14:51.526Z,17.20
2019-05-13T19:17:27.032Z,26.02
2019-05-13T19:19:59.132Z,24.02
2019-05-13T19:22:31.770Z,17.02
2019-05-13T19:25:06.413Z,15.68
2019-05-13T19:27:41.328Z,19.77
2019-05-13T19:30:13.068Z,20.82
2019-05-13T19:32:46.031Z,21.35
2019-05-13T19:35:17.501Z,25.10
2019-05-13T19:40:31.783Z,17.25
2019-05-13T19:43:11.705Z,18.17
2019-05-13T19:45:53.711Z,17.32
2019-05-13T19:48:32.726Z,20.17
2019-05-13T19:51:05.889Z,16.62
2019-05-13T19:53:41.193Z,19.73
2019-05-13T19:56:13.053Z,26.70
2019-05-13T19:58:46.288Z,31.42
2019-05-13T20:01:32.183Z,26.60
2019-05-13T20:04:11.939Z,28.83
2019-05-13T20:06:48.459Z,22.73
2019-05-13T20:09:23.099Z,25.70
2019-05-13T20:12:04.003Z,24.75
2019-05-13T20:14:35.701Z,22.40
2019-05-13T20:17:07.852Z,17.12
2019-05-13T20:19:50.111Z,19.60
2019-05-13T20:22:17.031Z,21.25
2019-05-13T20:25:06.340Z,20.40
2019-05-13T20:27:39.503Z,20.68
2019-05-13T20:30:15.763Z,24.72
2019-05-13T20:32:51.515Z,29.98
2019-05-13T20:38:47.837Z,25.20
2019-05-13T20:41:33.884Z,28.75
2019-05-13T20:48:41.108Z,21.95
2019-05-13T21:07:32.531Z,19.92
2019-05-13T21:10:31.997Z,21.52
2019-05-13T21:56:52.185Z,23.12
2019-05-13T22:09:51.295Z,38.17
2019-05-13T22:20:03.848Z,25.77
2019-05-13T22:26:31.967Z,28.50
2019-05-13T22:29:28.608Z,27.35
2019-05-13T22:32:53.126Z,27.80
2019-05-13T22:35:41.912Z,29.30
2019-05-13T22:39:32.292Z,29.80
2019-05-13T22:42:13.257Z,28.20
2019-05-13T22:46:32.231Z,33.85
2019-05-13T22:48:08.911Z,36.40
2019-05-13T22:51:01.171Z,31.23
2019-05-13T22:54:27.842Z,38.98
2019-05-13T22:57:11.998Z,37.98
2019-05-13T23:00:25.246Z,40.30
2019-05-13T23:07:02.771Z,39.85
2019-05-13T23:10:06.595Z,32.00
2019-05-13T23:12:57.265Z,37.42
2019-05-13T23:15:44.800Z,35.45
2019-05-13T23:18:38.313Z,47.50
2019-05-13T23:21:27.583Z,47.67
2019-05-13T23:27:26.980Z,60.20
2019-05-13T23:30:11.686Z,70.50
2019-05-13T23:32:51.880Z,57.40
2019-05-13T23:35:55.893Z,60.10
2019-05-13T23:38:35.982Z,46.37
2019-05-13T23:41:11.785Z,50.75
2019-05-13T23:43:48.402Z,45.20
2019-05-13T23:46:28.724Z,38.92
2019-05-13T23:52:16.546Z,44.85
